To NAV CANADA Home Page Login to a new session Search on AWWS site Disclaimer Vers la page française équivalente Tips FAQ What's new on the site To the Forecasts and Observations / NOTAM section To "File a Flight Plan" website Publications and other links Update of the User's profile FIC Telephone Numbers My Weather Data Folder Route Weather Data Regional Weather Data Local Weather Data To the Forecasts and Observations / NOTAM section
Request Generated 04/08/2020 at 09:01:40 UTC . Weather information available at that time is displayed.


Go to a specific product

Save this request - Inactive

METAR/TAF

CALGARY/YYC CALGARY INTL/AB    

METAR CYYC 080800Z 30007KT 7SM BKN073 M02/M12 A3016 RMK AC6 SLP267=
METAR CYYC 080700Z 33010G18KT 7SM BKN063 BKN073 M01/M12 A3014 RMK SC5AC2 VIRGA ALQDS SLP260=
METAR CYYC 080600Z 32005KT 7SM SCT061 BKN076 M01/M11 A3012 RMK SC4AC2 VIRGA ALQDS SLP253=

TAF CYYC 080838Z 0809/0906 30008KT P6SM BKN080
FM081200 32008KT P6SM FEW060
FM082200 10008KT P6SM FEW120 SCT200
BECMG 0904/0906 18010KT
RMK NXT FCST BY 081200Z=

CALGARY/SPRINGBANK/AB    (show WxCam)

METAR CYBW 080900Z AUTO 25005KT 9SM OVC060 M05/M09 A3016 RMK SLP276=
METAR CYBW 080800Z AUTO 36006KT 9SM OVC060 M04/M13 A3015 RMK SLP265=
METAR CYBW 080700Z AUTO 29004KT 220V330 9SM OVC065 M03/M13 A3013 RMK SLP257=

*** REMARK        : Forecast period has ended; this was the last TAF issued
*** REMARQUE : La période de prévision est échue; ceci était le dernier TAF qui a été émis
TAF CYBW 072341Z 0800/0804 06008KT P6SM -SN OVC025 TEMPO 0800/0803
3/4SM -SHSN VV008
RMK FCST BASED ON AUTO OBS. NXT FCST WILL BE ISSUED AT 081145Z=


GRAPHICAL FA CLOUDS & WEATHER FORECASTS
To the Product Selector
Graphical FA gfacn32      

GRAPHICAL FA ICING, TURBULENCE & FREEZING LEVEL FORECASTS
To the Product Selector
Graphical FA gfacn32      

Your time UTC time
Weather data provided by Environment Canada and NAV CANADA